createdAt,value
2022-10-11T00:00:38.420Z,0.00
2022-10-11T00:01:38.479Z,0.00
2022-10-11T00:02:38.404Z,0.00
2022-10-11T00:03:38.395Z,0.00
2022-10-11T00:04:38.412Z,0.00
2022-10-11T00:05:38.375Z,0.00
2022-10-11T00:06:38.359Z,0.00
2022-10-11T00:07:38.352Z,0.00
2022-10-11T00:08:38.334Z,0.00
2022-10-11T00:09:39.353Z,0.00
2022-10-11T00:10:38.325Z,0.00
2022-10-11T00:11:38.311Z,0.00
2022-10-11T00:12:38.309Z,0.00
2022-10-11T00:13:38.292Z,0.00
2022-10-11T00:14:38.299Z,0.00
2022-10-11T00:15:38.272Z,0.00
2022-10-11T00:16:38.270Z,0.00
2022-10-11T00:17:38.255Z,0.00
2022-10-11T00:18:38.242Z,0.00
2022-10-11T00:19:38.300Z,0.00
2022-10-11T00:20:38.229Z,0.00
2022-10-11T00:21:38.225Z,0.00
2022-10-11T00:22:38.210Z,0.00
2022-10-11T00:23:38.208Z,0.00
2022-10-11T00:24:38.232Z,0.00
2022-10-11T00:25:38.179Z,0.00
2022-10-11T00:26:38.168Z,0.00
2022-10-11T00:27:38.164Z,0.00
2022-10-11T00:28:38.202Z,0.00
2022-10-11T00:29:38.149Z,0.00
2022-10-11T00:30:38.130Z,0.00
2022-10-11T00:31:38.122Z,0.00
2022-10-11T00:32:38.107Z,0.00
2022-10-11T00:33:38.096Z,0.00
2022-10-11T00:34:38.103Z,0.00
2022-10-11T00:35:38.080Z,0.00
2022-10-11T00:36:38.070Z,0.00
2022-10-11T00:37:38.059Z,0.00
2022-10-11T00:38:38.055Z,0.00
2022-10-11T00:39:38.071Z,0.00
2022-10-11T00:40:38.038Z,0.00
2022-10-11T00:41:38.021Z,0.00
2022-10-11T00:42:38.010Z,0.00
2022-10-11T00:43:38.010Z,0.00
2022-10-11T00:44:38.012Z,0.00
2022-10-11T00:45:37.968Z,0.00
2022-10-11T00:46:37.972Z,0.00
2022-10-11T00:47:37.981Z,0.00
2022-10-11T00:48:37.956Z,0.00
2022-10-11T00:49:37.954Z,0.00
2022-10-11T00:50:37.953Z,0.00
2022-10-11T00:51:37.926Z,0.00
2022-10-11T00:52:37.921Z,0.00
2022-10-11T00:53:37.893Z,0.00
2022-10-11T00:54:37.915Z,0.00
2022-10-11T00:55:37.889Z,0.00
2022-10-11T00:56:37.879Z,0.00
2022-10-11T00:57:37.856Z,0.00
2022-10-11T00:58:37.860Z,0.00
2022-10-11T00:59:37.869Z,0.00
2022-10-11T01:00:37.837Z,0.00
2022-10-11T01:01:37.866Z,0.00
2022-10-11T01:02:37.821Z,0.00
2022-10-11T01:03:37.808Z,0.00
2022-10-11T01:04:37.823Z,0.00
2022-10-11T01:05:37.786Z,0.00
2022-10-11T01:06:37.783Z,0.00
2022-10-11T01:07:37.765Z,0.00
2022-10-11T01:08:37.758Z,0.00
2022-10-11T01:09:37.737Z,0.00
2022-10-11T01:10:37.752Z,0.00
2022-10-11T01:11:37.733Z,0.00
2022-10-11T01:12:37.716Z,0.00
2022-10-11T01:13:37.703Z,0.00
2022-10-11T01:14:37.699Z,0.00
2022-10-11T01:15:37.702Z,0.00
2022-10-11T01:16:37.680Z,0.00
2022-10-11T01:17:37.666Z,0.00
2022-10-11T01:18:37.654Z,0.00
2022-10-11T01:19:37.652Z,0.00
2022-10-11T01:20:37.653Z,0.00
2022-10-11T01:21:37.624Z,0.00
2022-10-11T01:22:37.615Z,0.00
2022-10-11T01:23:37.613Z,0.00
2022-10-11T01:24:37.597Z,0.00
2022-10-11T01:25:37.593Z,0.00
2022-10-11T01:26:37.585Z,0.00
2022-10-11T01:27:37.578Z,0.00
2022-10-11T01:28:37.625Z,0.00
2022-10-11T01:29:38.555Z,0.00
2022-10-11T01:30:37.586Z,0.00
2022-10-11T01:31:37.525Z,0.00
2022-10-11T01:32:37.524Z,0.00
2022-10-11T01:33:37.519Z,0.00
2022-10-11T01:34:37.497Z,0.00
2022-10-11T01:35:37.502Z,0.00
2022-10-11T01:36:37.477Z,0.00
2022-10-11T01:37:37.465Z,0.00
2022-10-11T01:38:37.464Z,0.00
2022-10-11T01:39:37.456Z,0.00
2022-10-11T01:40:37.459Z,0.00
2022-10-11T01:41:37.425Z,0.00
2022-10-11T01:42:37.423Z,0.00
2022-10-11T01:43:37.413Z,0.00
2022-10-11T01:44:37.441Z,0.00
2022-10-11T01:45:37.401Z,0.00
2022-10-11T01:46:37.378Z,0.00
2022-10-11T01:47:37.366Z,0.00
2022-10-11T01:48:37.363Z,0.00
2022-10-11T01:49:37.350Z,0.00
2022-10-11T01:50:37.361Z,0.00
2022-10-11T01:51:37.337Z,0.00
2022-10-11T01:52:37.320Z,0.00
2022-10-11T01:53:37.328Z,0.00
2022-10-11T01:54:56.992Z,0.00
2022-10-11T01:55:39.306Z,0.00
2022-10-11T01:56:37.283Z,0.00
2022-10-11T01:57:37.271Z,0.00
2022-10-11T01:58:37.261Z,0.00
2022-10-11T01:59:37.245Z,0.00
2022-10-11T02:00:37.247Z,0.00
2022-10-11T02:01:37.310Z,0.00
2022-10-11T02:02:37.208Z,0.00
2022-10-11T02:03:37.202Z,0.00
2022-10-11T02:04:37.197Z,0.00
2022-10-11T02:05:37.205Z,0.00
2022-10-11T02:06:37.172Z,0.00
2022-10-11T02:07:37.162Z,0.00
2022-10-11T02:08:37.153Z,0.00
2022-10-11T02:09:37.139Z,0.00
2022-10-11T02:10:37.144Z,0.00
2022-10-11T02:11:37.121Z,0.00
2022-10-11T02:12:37.107Z,0.00
2022-10-11T02:13:37.091Z,0.00
2022-10-11T02:14:37.081Z,0.00
2022-10-11T02:15:37.093Z,0.00
2022-10-11T02:16:37.071Z,0.00
2022-10-11T02:17:37.053Z,0.00
2022-10-11T02:18:37.043Z,0.00
2022-10-11T02:19:37.033Z,0.00
2022-10-11T02:20:37.047Z,0.00
2022-10-11T02:21:37.005Z,0.00
2022-10-11T02:22:37.011Z,0.00
2022-10-11T02:23:36.988Z,0.00
2022-10-11T02:24:36.984Z,0.00
2022-10-11T02:25:36.979Z,0.00
2022-10-11T02:26:36.966Z,0.00
2022-10-11T02:27:36.950Z,0.00
2022-10-11T02:28:36.974Z,0.00
2022-10-11T02:29:36.926Z,0.00
2022-10-11T02:30:36.940Z,0.00
2022-10-11T02:31:36.903Z,0.00
2022-10-11T02:32:36.901Z,0.00
2022-10-11T02:33:36.888Z,0.00
2022-10-11T02:34:36.885Z,0.00
2022-10-11T02:35:36.879Z,0.00
2022-10-11T02:36:36.851Z,0.00
2022-10-11T02:37:36.833Z,0.00
2022-10-11T02:38:36.839Z,0.00
2022-10-11T02:39:36.817Z,0.00
2022-10-11T02:40:36.939Z,0.00
2022-10-11T02:41:36.788Z,0.00
2022-10-11T02:42:36.781Z,0.00
2022-10-11T02:43:36.765Z,0.00
2022-10-11T02:44:36.763Z,0.00
2022-10-11T02:45:36.763Z,0.00
2022-10-11T02:46:36.746Z,0.00
2022-10-11T02:47:36.732Z,0.00
2022-10-11T02:48:36.709Z,0.00
2022-10-11T02:49:36.697Z,0.00
2022-10-11T02:50:36.705Z,0.00
2022-10-11T02:51:36.683Z,0.00
2022-10-11T02:52:36.675Z,0.00
2022-10-11T02:53:36.655Z,0.00
2022-10-11T02:54:36.649Z,0.00
2022-10-11T02:55:36.652Z,0.00
2022-10-11T02:56:36.628Z,0.00
2022-10-11T02:57:36.606Z,0.00
2022-10-11T02:58:36.605Z,0.00
2022-10-11T02:59:36.599Z,0.00
2022-10-11T03:00:36.602Z,0.00
2022-10-11T03:01:36.636Z,0.00
2022-10-11T03:02:36.564Z,0.00
2022-10-11T03:03:36.548Z,0.00
2022-10-11T03:04:36.539Z,0.00
2022-10-11T03:05:36.533Z,0.00
2022-10-11T03:06:36.516Z,0.00
2022-10-11T03:07:36.510Z,0.00
2022-10-11T03:08:36.492Z,0.00
2022-10-11T03:09:36.490Z,0.00
2022-10-11T03:10:36.486Z,0.00
2022-10-11T03:12:02.867Z,0.00
2022-10-11T03:12:36.449Z,0.00
2022-10-11T03:13:37.438Z,0.00
2022-10-11T03:14:36.447Z,0.00
2022-10-11T03:15:36.426Z,0.00
2022-10-11T03:16:36.408Z,0.00
2022-10-11T03:17:37.335Z,0.00
2022-10-11T03:18:37.381Z,0.00
2022-10-11T03:19:36.367Z,0.00
2022-10-11T03:20:36.385Z,0.00
2022-10-11T03:21:36.371Z,0.00
2022-10-11T03:22:36.331Z,0.00
2022-10-11T03:23:36.330Z,0.00
2022-10-11T03:24:36.320Z,0.00
2022-10-11T03:25:36.326Z,0.00
2022-10-11T03:26:36.287Z,0.00
2022-10-11T03:27:36.285Z,0.00
2022-10-11T03:28:36.386Z,0.00
2022-10-11T03:29:36.258Z,0.00
2022-10-11T03:30:36.264Z,0.00
2022-10-11T03:31:36.248Z,0.00
2022-10-11T03:32:36.228Z,0.00
2022-10-11T03:33:36.217Z,0.00
2022-10-11T03:34:36.192Z,0.00
2022-10-11T03:35:36.202Z,0.00
2022-10-11T03:36:36.180Z,0.00
2022-10-11T03:37:36.169Z,0.00
2022-10-11T03:38:36.157Z,0.00
2022-10-11T03:39:36.148Z,0.00
2022-10-11T03:40:36.157Z,0.00
2022-10-11T03:41:36.122Z,0.00
2022-10-11T03:42:36.107Z,0.00
2022-10-11T03:43:36.097Z,0.00
2022-10-11T03:44:36.091Z,0.00
2022-10-11T03:45:36.113Z,0.00
2022-10-11T03:46:36.075Z,0.00
2022-10-11T03:47:36.057Z,0.00
2022-10-11T03:48:36.047Z,0.00
2022-10-11T03:49:38.784Z,0.00
2022-10-11T03:50:38.044Z,0.00
2022-10-11T03:51:36.014Z,0.00
2022-10-11T03:52:35.997Z,0.00
2022-10-11T03:53:35.991Z,0.00
2022-10-11T03:54:35.981Z,0.00
2022-10-11T03:55:35.985Z,0.00
2022-10-11T03:56:35.961Z,0.00
2022-10-11T03:57:35.941Z,0.00
2022-10-11T03:58:35.926Z,0.00
2022-10-11T03:59:35.920Z,0.00
2022-10-11T04:00:35.939Z,0.00
2022-10-11T04:01:35.987Z,0.00
2022-10-11T04:02:39.164Z,0.00
2022-10-11T04:03:35.885Z,0.00
2022-10-11T04:04:35.872Z,0.00
2022-10-11T04:05:35.875Z,0.00
2022-10-11T04:06:35.832Z,0.00
2022-10-11T04:07:35.832Z,0.00
2022-10-11T04:08:35.820Z,0.00
2022-10-11T04:09:35.815Z,0.00
2022-10-11T04:10:35.801Z,0.00
2022-10-11T04:11:35.812Z,0.00
2022-10-11T04:12:35.782Z,0.00
2022-10-11T04:13:35.765Z,0.00
2022-10-11T04:14:35.749Z,0.00
2022-10-11T04:15:35.745Z,0.00
2022-10-11T04:16:35.751Z,0.00
2022-10-11T04:17:35.721Z,0.00
2022-10-11T04:18:35.699Z,0.00
2022-10-11T04:19:35.699Z,0.00
2022-10-11T04:20:35.685Z,0.00
2022-10-11T04:21:35.694Z,0.00
2022-10-11T04:22:35.663Z,0.00
2022-10-11T04:23:35.656Z,0.00
2022-10-11T04:24:35.635Z,0.00
2022-10-11T04:25:35.631Z,0.00
2022-10-11T04:26:35.637Z,0.00
2022-10-11T04:27:35.603Z,0.00
2022-10-11T04:28:35.643Z,0.00
2022-10-11T04:29:35.586Z,0.00
2022-10-11T04:30:35.567Z,0.00
2022-10-11T04:31:35.579Z,0.00
2022-10-11T04:32:35.559Z,0.00
2022-10-11T04:33:35.538Z,0.00
2022-10-11T04:34:35.532Z,0.00
2022-10-11T04:35:35.515Z,0.00
2022-10-11T04:36:35.553Z,0.00
2022-10-11T04:37:35.509Z,0.00
2022-10-11T04:38:35.479Z,0.00
2022-10-11T04:39:35.509Z,0.00
2022-10-11T04:40:35.509Z,0.00
2022-10-11T04:41:35.454Z,0.00
2022-10-11T04:42:35.448Z,0.00
2022-10-11T04:43:35.433Z,0.00
2022-10-11T04:44:35.427Z,0.00
2022-10-11T04:45:35.441Z,0.00
2022-10-11T04:46:35.414Z,0.00
2022-10-11T04:47:35.397Z,0.00
2022-10-11T04:48:35.386Z,0.00
2022-10-11T04:49:35.372Z,0.00
2022-10-11T04:50:35.378Z,0.00
2022-10-11T04:51:35.356Z,0.00
2022-10-11T04:52:35.352Z,0.00
2022-10-11T04:53:35.334Z,0.00
2022-10-11T04:54:35.333Z,0.00
2022-10-11T04:55:35.342Z,0.00
2022-10-11T04:56:35.305Z,0.00
2022-10-11T04:57:35.303Z,0.00
2022-10-11T04:58:35.293Z,0.00
2022-10-11T04:59:35.271Z,0.00
2022-10-11T05:00:35.287Z,0.00
2022-10-11T05:01:35.341Z,0.00
2022-10-11T05:02:35.239Z,0.00
2022-10-11T05:03:35.227Z,0.00
2022-10-11T05:04:35.223Z,0.00
2022-10-11T05:05:35.233Z,0.00
2022-10-11T05:06:35.210Z,0.00
2022-10-11T05:07:35.208Z,0.00
2022-10-11T05:08:35.193Z,4.00
2022-10-11T05:09:35.167Z,4.00
2022-10-11T05:10:35.189Z,0.00
2022-10-11T05:11:35.154Z,4.00
2022-10-11T05:12:35.148Z,4.00
2022-10-11T05:13:35.150Z,4.00
2022-10-11T05:14:35.157Z,8.00
2022-10-11T05:15:35.130Z,8.00
2022-10-11T05:16:35.097Z,12.00
2022-10-11T05:17:35.107Z,12.00
2022-10-11T05:18:35.082Z,16.00
2022-10-11T05:19:35.108Z,16.00
2022-10-11T05:20:35.076Z,20.00
2022-10-11T05:21:35.049Z,24.00
2022-10-11T05:22:35.036Z,32.00
2022-10-11T05:23:35.027Z,36.00
2022-10-11T05:24:35.027Z,44.00
2022-10-11T05:25:35.022Z,52.00
2022-10-11T05:26:34.998Z,60.00
2022-10-11T05:27:34.989Z,68.00
2022-10-11T05:28:35.068Z,80.00
2022-10-11T05:29:34.963Z,96.00
2022-10-11T05:30:34.968Z,112.00
2022-10-11T05:31:34.954Z,132.00
2022-10-11T05:32:34.928Z,152.00
2022-10-11T05:33:34.922Z,176.00
2022-10-11T05:34:34.926Z,196.00
2022-10-11T05:35:34.921Z,224.00
2022-10-11T05:36:34.883Z,248.00
2022-10-11T05:37:34.880Z,276.00
2022-10-11T05:38:34.859Z,304.00
2022-10-11T05:39:34.864Z,336.00
2022-10-11T05:40:34.867Z,368.00
2022-10-11T05:41:34.838Z,408.00
2022-10-11T05:42:34.831Z,444.00
2022-10-11T05:43:34.809Z,484.00
2022-10-11T05:44:34.807Z,532.00
2022-10-11T05:45:34.795Z,588.00
2022-10-11T05:46:34.798Z,636.00
2022-10-11T05:47:34.767Z,684.00
2022-10-11T05:48:34.758Z,732.00
2022-10-11T05:49:34.746Z,772.00
2022-10-11T05:50:34.725Z,804.00
2022-10-11T05:51:34.742Z,816.00
2022-10-11T05:52:34.709Z,828.00
2022-10-11T05:53:34.704Z,840.00
2022-10-11T05:54:34.695Z,844.00
2022-10-11T05:55:34.683Z,856.00
2022-10-11T05:56:34.682Z,880.00
2022-10-11T05:57:34.659Z,904.00
2022-10-11T05:58:34.645Z,928.00
2022-10-11T05:59:34.635Z,968.00
2022-10-11T06:00:34.621Z,1012.00
2022-10-11T06:01:34.773Z,1052.00
2022-10-11T06:02:34.604Z,1092.00
2022-10-11T06:03:34.589Z,1136.00
2022-10-11T06:04:34.579Z,1184.00
2022-10-11T06:05:34.567Z,1232.00
2022-10-11T06:06:34.567Z,1276.00
2022-10-11T06:07:35.546Z,1316.00
2022-10-11T06:08:34.529Z,1360.00
2022-10-11T06:09:34.523Z,1400.00
2022-10-11T06:10:34.512Z,1416.00
2022-10-11T06:11:34.523Z,1424.00
2022-10-11T06:12:34.499Z,1432.00
2022-10-11T06:13:34.482Z,1456.00
2022-10-11T06:14:34.468Z,1492.00
2022-10-11T06:15:34.463Z,1528.00
2022-10-11T06:16:34.470Z,1564.00
2022-10-11T06:17:34.438Z,1616.00
2022-10-11T06:18:34.421Z,1680.00
2022-10-11T06:19:34.418Z,1764.00
2022-10-11T06:20:34.402Z,1832.00
2022-10-11T06:21:34.413Z,1896.00
2022-10-11T06:22:34.378Z,1956.00
2022-10-11T06:23:34.365Z,1996.00
2022-10-11T06:24:34.359Z,2012.00
2022-10-11T06:25:34.338Z,2020.00
2022-10-11T06:26:34.416Z,2008.00
2022-10-11T06:27:34.319Z,1976.00
2022-10-11T06:28:34.377Z,1944.00
2022-10-11T06:29:34.297Z,1956.00
2022-10-11T06:30:34.299Z,1980.00
2022-10-11T06:31:34.306Z,2016.00
2022-10-11T06:32:34.260Z,2044.00
2022-10-11T06:33:34.247Z,2072.00
2022-10-11T06:34:34.241Z,2080.00
2022-10-11T06:35:34.235Z,2072.00
2022-10-11T06:36:34.240Z,2068.00
2022-10-11T06:37:34.214Z,2076.00
2022-10-11T06:38:34.201Z,2092.00
2022-10-11T06:39:34.192Z,2104.00
2022-10-11T06:40:34.180Z,2120.00
2022-10-11T06:41:34.173Z,2144.00
2022-10-11T06:42:34.146Z,2200.00
2022-10-11T06:43:34.144Z,2248.00
2022-10-11T06:44:34.137Z,2316.00
2022-10-11T06:45:34.116Z,2344.00
2022-10-11T06:46:34.127Z,2348.00
2022-10-11T06:47:34.097Z,2392.00
2022-10-11T06:48:34.098Z,2484.00
2022-10-11T06:49:34.086Z,2596.00
2022-10-11T06:50:57.987Z,2700.00
2022-10-11T06:51:36.089Z,2808.00
2022-10-11T06:52:34.054Z,2952.00
2022-10-11T06:53:34.027Z,3048.00
2022-10-11T06:54:34.024Z,3136.00
2022-10-11T06:55:34.012Z,3192.00
2022-10-11T06:56:34.024Z,3252.00
2022-10-11T06:57:33.996Z,3380.00
2022-10-11T06:58:33.988Z,3508.00
2022-10-11T06:59:33.980Z,3672.00
2022-10-11T07:00:33.963Z,3896.00
2022-10-11T07:01:34.049Z,4092.00
2022-10-11T07:02:33.948Z,4284.00
2022-10-11T07:03:33.934Z,4540.00
2022-10-11T07:04:34.057Z,4632.00
2022-10-11T07:05:33.912Z,4592.00
2022-10-11T07:06:33.921Z,4728.00
2022-10-11T07:07:33.890Z,4848.00
2022-10-11T07:08:33.883Z,4916.00
2022-10-11T07:09:33.885Z,4960.00
2022-10-11T07:10:33.859Z,4916.00
2022-10-11T07:11:33.883Z,4856.00
2022-10-11T07:12:33.839Z,4768.00
2022-10-11T07:13:33.828Z,4752.00
2022-10-11T07:14:33.817Z,4784.00
2022-10-11T07:15:33.822Z,4732.00
2022-10-11T07:16:33.830Z,4752.00
2022-10-11T07:17:33.785Z,4684.00
2022-10-11T07:18:33.774Z,4572.00
2022-10-11T07:19:33.768Z,4532.00
2022-10-11T07:20:33.751Z,4724.00
2022-10-11T07:21:33.765Z,4984.00
2022-10-11T07:22:33.735Z,5040.00
2022-10-11T07:23:33.740Z,4976.00
2022-10-11T07:24:33.716Z,4944.00
2022-10-11T07:25:33.705Z,4968.00
2022-10-11T07:26:38.277Z,4960.00
2022-10-11T07:27:35.668Z,5136.00
2022-10-11T07:28:33.731Z,5400.00
2022-10-11T07:29:33.648Z,5616.00
2022-10-11T07:30:33.639Z,5716.00
2022-10-11T07:31:33.650Z,5848.00
2022-10-11T07:32:33.638Z,5864.00
2022-10-11T07:33:33.613Z,6284.00
2022-10-11T07:34:33.628Z,6420.00
2022-10-11T07:35:33.591Z,6576.00
2022-10-11T07:36:33.600Z,6620.00
2022-10-11T07:37:33.584Z,6720.00
2022-10-11T07:38:33.580Z,6880.00
2022-10-11T07:39:33.574Z,7216.00
2022-10-11T07:40:33.539Z,7316.00
2022-10-11T07:41:33.550Z,7232.00
2022-10-11T07:42:33.530Z,6988.00
2022-10-11T07:43:33.534Z,6904.00
2022-10-11T07:44:33.514Z,6912.00
2022-10-11T07:45:33.512Z,6884.00
2022-10-11T07:46:33.506Z,6936.00
2022-10-11T07:47:33.486Z,6972.00
2022-10-11T07:48:33.462Z,7016.00
2022-10-11T07:49:33.461Z,7116.00
2022-10-11T07:50:33.456Z,6960.00
2022-10-11T07:51:33.474Z,6680.00
2022-10-11T07:52:33.438Z,6480.00
2022-10-11T07:53:33.425Z,6472.00
2022-10-11T07:54:33.417Z,6320.00
2022-10-11T07:55:33.406Z,5884.00
2022-10-11T07:56:33.448Z,5980.00
2022-10-11T07:57:33.391Z,6312.00
2022-10-11T07:58:33.367Z,6328.00
2022-10-11T07:59:34.366Z,6300.00
2022-10-11T08:00:33.359Z,6332.00
2022-10-11T08:01:33.523Z,6196.00
2022-10-11T08:02:33.341Z,6020.00
2022-10-11T08:03:33.330Z,5928.00
2022-10-11T08:04:33.309Z,5932.00
2022-10-11T08:05:33.305Z,5976.00
2022-10-11T08:06:33.303Z,5860.00
2022-10-11T08:07:33.346Z,5728.00
2022-10-11T08:08:33.269Z,6116.00
2022-10-11T08:09:33.273Z,6536.00
2022-10-11T08:10:33.269Z,6468.00
2022-10-11T08:11:33.260Z,6364.00
2022-10-11T08:12:33.239Z,6376.00
2022-10-11T08:13:33.233Z,6500.00
2022-10-11T08:14:33.219Z,6756.00
2022-10-11T08:15:33.215Z,7084.00
2022-10-11T08:16:33.238Z,7172.00
2022-10-11T08:17:33.181Z,7156.00
2022-10-11T08:18:34.184Z,7276.00
2022-10-11T08:19:33.181Z,7104.00
2022-10-11T08:20:33.167Z,7180.00
2022-10-11T08:21:33.182Z,7448.00
2022-10-11T08:22:33.143Z,7444.00
2022-10-11T08:23:33.127Z,7336.00
2022-10-11T08:24:38.024Z,7444.00
2022-10-11T08:25:33.112Z,7588.00
2022-10-11T08:26:33.119Z,7800.00
2022-10-11T08:27:33.091Z,7880.00
2022-10-11T08:28:33.132Z,7900.00
2022-10-11T08:29:33.077Z,7924.00
2022-10-11T08:30:33.051Z,7940.00
2022-10-11T08:31:33.063Z,7956.00
2022-10-11T08:32:33.029Z,8140.00
2022-10-11T08:33:33.043Z,8184.00
2022-10-11T08:34:33.016Z,8368.00
2022-10-11T08:35:33.005Z,8572.00
2022-10-11T08:36:33.007Z,8724.00
2022-10-11T08:37:32.989Z,9132.00
2022-10-11T08:38:32.978Z,9088.00
2022-10-11T08:39:32.962Z,8700.00
2022-10-11T08:40:35.394Z,8820.00
2022-10-11T08:41:33.965Z,9064.00
2022-10-11T08:42:32.939Z,8796.00
2022-10-11T08:43:33.631Z,8792.00
2022-10-11T08:44:51.856Z,9100.00
2022-10-11T08:45:33.912Z,8864.00
2022-10-11T08:46:32.917Z,8808.00
2022-10-11T08:47:32.900Z,8700.00
2022-10-11T08:48:32.891Z,8648.00
2022-10-11T08:49:32.878Z,8740.00
2022-10-11T08:50:32.871Z,8960.00
2022-10-11T08:51:33.099Z,9128.00
2022-10-11T08:52:32.836Z,9192.00
2022-10-11T08:53:32.828Z,9108.00
2022-10-11T08:54:32.860Z,8992.00
2022-10-11T08:55:32.858Z,8500.00
2022-10-11T08:56:32.814Z,8532.00
2022-10-11T08:57:32.795Z,8872.00
2022-10-11T08:58:32.794Z,8948.00
2022-10-11T08:59:32.781Z,8996.00
2022-10-11T09:00:32.937Z,9308.00
2022-10-11T09:01:32.836Z,9812.00
2022-10-11T09:02:55.601Z,10032.00
2022-10-11T09:03:34.727Z,9920.00
2022-10-11T09:04:32.708Z,9876.00
2022-10-11T09:05:32.706Z,9980.00
2022-10-11T09:06:32.709Z,9864.00
2022-10-11T09:07:32.692Z,9664.00
2022-10-11T09:08:32.698Z,9504.00
2022-10-11T09:09:32.670Z,9560.00
2022-10-11T09:10:32.664Z,9480.00
2022-10-11T09:11:35.408Z,9264.00
2022-10-11T09:13:04.643Z,9080.00
2022-10-11T09:13:32.629Z,8936.00
2022-10-11T09:14:32.623Z,8872.00
2022-10-11T09:15:32.607Z,8996.00
2022-10-11T09:16:32.605Z,9184.00
2022-10-11T09:17:32.586Z,9196.00
2022-10-11T09:18:32.581Z,9212.00
2022-10-11T09:19:32.571Z,9172.00
2022-10-11T09:20:32.570Z,9140.00
2022-10-11T09:21:32.574Z,9196.00
2022-10-11T09:22:32.545Z,9320.00
2022-10-11T09:23:32.531Z,9428.00
2022-10-11T09:24:32.525Z,9572.00
2022-10-11T09:25:32.516Z,9700.00
2022-10-11T09:26:32.514Z,9652.00
2022-10-11T09:27:57.786Z,9624.00
2022-10-11T09:28:34.511Z,9636.00
2022-10-11T09:29:32.474Z,9904.00
2022-10-11T09:30:32.469Z,10332.00
2022-10-11T09:31:32.464Z,10804.00
2022-10-11T09:32:32.432Z,11740.00
2022-10-11T09:33:32.433Z,12392.00
2022-10-11T09:34:32.442Z,11800.00
2022-10-11T09:35:32.409Z,11564.00
2022-10-11T09:36:32.439Z,11596.00
2022-10-11T09:37:32.392Z,12032.00
2022-10-11T09:38:32.402Z,12820.00
2022-10-11T09:39:32.381Z,12572.00
2022-10-11T09:40:32.356Z,12560.00
2022-10-11T09:41:32.377Z,12008.00
2022-10-11T09:42:32.352Z,11692.00
2022-10-11T09:43:32.338Z,10724.00
2022-10-11T09:44:32.318Z,10624.00
2022-10-11T09:45:32.313Z,10012.00
2022-10-11T09:46:32.320Z,9800.00
2022-10-11T09:47:32.293Z,9980.00
2022-10-11T09:48:32.284Z,10348.00
2022-10-11T09:49:32.272Z,10196.00
2022-10-11T09:50:32.268Z,10168.00
2022-10-11T09:51:32.279Z,10072.00
2022-10-11T09:52:32.249Z,10132.00
2022-10-11T09:53:32.248Z,10448.00
2022-10-11T09:54:32.242Z,10340.00
2022-10-11T09:55:32.230Z,10732.00
2022-10-11T09:56:32.229Z,10456.00
2022-10-11T09:57:32.208Z,9956.00
2022-10-11T09:58:32.192Z,9668.00
2022-10-11T09:59:32.192Z,9752.00
2022-10-11T10:00:32.177Z,10072.00
2022-10-11T10:01:32.244Z,10080.00
2022-10-11T10:02:32.171Z,10168.00
2022-10-11T10:03:32.153Z,11064.00
2022-10-11T10:04:32.139Z,10900.00
2022-10-11T10:05:32.133Z,10968.00
2022-10-11T10:06:32.146Z,11008.00
2022-10-11T10:07:32.115Z,10932.00
2022-10-11T10:08:32.106Z,10680.00
2022-10-11T10:09:32.088Z,10796.00
2022-10-11T10:10:32.083Z,10808.00
2022-10-11T10:11:32.095Z,10772.00
2022-10-11T10:12:32.046Z,10668.00
2022-10-11T10:13:32.054Z,10676.00
2022-10-11T10:14:32.042Z,10904.00
2022-10-11T10:15:32.030Z,11044.00
2022-10-11T10:16:32.036Z,11200.00
2022-10-11T10:17:32.005Z,11340.00
2022-10-11T10:18:32.006Z,11348.00
2022-10-11T10:19:31.995Z,11228.00
2022-10-11T10:20:31.965Z,11304.00
2022-10-11T10:21:32.011Z,11244.00
2022-10-11T10:22:31.959Z,10712.00
2022-10-11T10:23:31.955Z,10524.00
2022-10-11T10:24:31.933Z,10496.00
2022-10-11T10:25:31.940Z,11232.00
2022-10-11T10:26:31.931Z,11464.00
2022-10-11T10:27:31.912Z,11368.00
2022-10-11T10:28:31.921Z,10684.00
2022-10-11T10:29:31.887Z,10828.00
2022-10-11T10:30:35.526Z,11920.00
2022-10-11T10:31:44.453Z,12484.00
2022-10-11T10:32:33.867Z,11836.00
2022-10-11T10:33:31.850Z,12536.00
2022-10-11T10:34:31.837Z,12236.00
2022-10-11T10:35:31.826Z,11352.00
2022-10-11T10:36:31.836Z,10776.00
2022-10-11T10:37:31.814Z,10540.00
2022-10-11T10:38:31.804Z,10516.00
2022-10-11T10:39:31.788Z,11372.00
2022-10-11T10:40:31.773Z,10572.00
2022-10-11T10:41:31.790Z,10924.00
2022-10-11T10:42:31.764Z,11944.00
2022-10-11T10:43:31.754Z,12356.00
2022-10-11T10:44:32.738Z,11908.00
2022-10-11T10:45:31.743Z,11388.00
2022-10-11T10:46:31.761Z,11284.00
2022-10-11T10:47:31.711Z,10812.00
2022-10-11T10:48:46.963Z,10528.00
2022-10-11T10:49:52.989Z,11580.00
2022-10-11T10:50:33.693Z,11312.00
2022-10-11T10:51:31.691Z,11176.00
2022-10-11T10:52:31.654Z,10924.00
2022-10-11T10:53:31.666Z,11316.00
2022-10-11T10:54:31.639Z,11548.00
2022-10-11T10:55:31.634Z,11324.00
2022-10-11T10:56:31.642Z,11476.00
2022-10-11T10:57:31.613Z,11148.00
2022-10-11T10:58:31.602Z,11192.00
2022-10-11T10:59:31.622Z,10952.00
2022-10-11T11:00:31.583Z,11228.00
2022-10-11T11:01:31.689Z,11060.00
2022-10-11T11:02:46.978Z,10892.00
2022-10-11T11:03:33.563Z,10764.00
2022-10-11T11:04:31.559Z,10652.00
2022-10-11T11:05:31.549Z,9840.00
2022-10-11T11:06:34.204Z,10096.00
2022-10-11T11:07:33.529Z,9844.00
2022-10-11T11:08:31.512Z,9624.00
2022-10-11T11:09:31.502Z,9580.00
2022-10-11T11:10:31.499Z,9856.00
2022-10-11T11:11:31.503Z,9808.00
2022-10-11T11:12:31.476Z,9848.00
2022-10-11T11:13:31.466Z,10124.00
2022-10-11T11:14:31.487Z,10148.00
2022-10-11T11:15:34.264Z,9876.00
2022-10-11T11:16:32.447Z,10088.00
2022-10-11T11:17:31.421Z,9916.00
2022-10-11T11:18:31.411Z,9828.00
2022-10-11T11:19:31.422Z,9572.00
2022-10-11T11:20:31.392Z,9416.00
2022-10-11T11:21:31.401Z,9216.00
2022-10-11T11:22:32.876Z,9048.00
2022-10-11T11:23:32.361Z,8640.00
2022-10-11T11:24:31.370Z,9180.00
2022-10-11T11:25:31.341Z,9132.00
2022-10-11T11:26:31.354Z,9092.00
2022-10-11T11:27:31.319Z,8808.00
2022-10-11T11:28:31.396Z,8840.00
2022-10-11T11:29:31.310Z,8836.00
2022-10-11T11:30:31.288Z,8812.00
2022-10-11T11:31:31.298Z,8960.00
2022-10-11T11:32:31.263Z,9040.00
2022-10-11T11:33:31.266Z,9192.00
2022-10-11T11:34:31.248Z,9372.00
2022-10-11T11:35:31.237Z,9400.00
2022-10-11T11:36:31.258Z,9384.00
2022-10-11T11:37:31.232Z,9448.00
2022-10-11T11:38:31.211Z,9420.00
2022-10-11T11:39:31.202Z,9380.00
2022-10-11T11:40:31.190Z,9360.00
2022-10-11T11:41:31.197Z,9532.00
2022-10-11T11:42:31.176Z,9712.00
2022-10-11T11:43:31.167Z,9528.00
2022-10-11T11:44:31.152Z,9688.00
2022-10-11T11:45:31.139Z,9784.00
2022-10-11T11:46:31.158Z,9784.00
2022-10-11T11:47:31.152Z,9756.00
2022-10-11T11:48:31.128Z,9720.00
2022-10-11T11:49:31.162Z,9724.00
2022-10-11T11:50:34.273Z,9688.00
2022-10-11T11:51:31.538Z,9716.00
2022-10-11T11:52:31.078Z,9700.00
2022-10-11T11:53:31.078Z,9684.00
2022-10-11T11:54:31.055Z,9640.00
2022-10-11T11:55:31.044Z,9600.00
2022-10-11T11:56:31.030Z,9348.00
2022-10-11T11:57:31.036Z,9272.00
2022-10-11T11:58:31.015Z,9264.00
2022-10-11T11:59:30.994Z,9544.00
2022-10-11T12:00:31.000Z,9564.00
2022-10-11T12:01:31.741Z,9440.00
2022-10-11T12:02:31.985Z,9312.00
2022-10-11T12:03:30.965Z,9352.00
2022-10-11T12:04:30.951Z,9452.00
2022-10-11T12:05:30.940Z,9396.00
2022-10-11T12:06:30.939Z,9392.00
2022-10-11T12:07:30.950Z,9372.00
2022-10-11T12:08:30.909Z,9360.00
2022-10-11T12:09:30.899Z,9388.00
2022-10-11T12:10:30.892Z,9412.00
2022-10-11T12:11:35.379Z,9452.00
2022-10-11T12:12:30.884Z,9484.00
2022-10-11T12:13:32.582Z,9500.00
2022-10-11T12:14:31.865Z,9520.00
2022-10-11T12:15:30.853Z,9536.00
2022-10-11T12:16:30.846Z,9504.00
2022-10-11T12:17:30.847Z,9428.00
2022-10-11T12:18:30.821Z,9340.00
2022-10-11T12:19:30.814Z,9060.00
2022-10-11T12:20:30.802Z,9132.00
2022-10-11T12:21:30.786Z,9076.00
2022-10-11T12:22:30.788Z,9040.00
2022-10-11T12:23:30.766Z,9072.00
2022-10-11T12:24:30.754Z,9080.00
2022-10-11T12:25:30.748Z,9060.00
2022-10-11T12:26:30.734Z,9004.00
2022-10-11T12:27:30.739Z,8832.00
2022-10-11T12:28:30.752Z,8860.00
2022-10-11T12:29:30.708Z,8856.00
2022-10-11T12:30:30.688Z,8740.00
2022-10-11T12:31:30.687Z,8816.00
2022-10-11T12:32:30.709Z,9004.00
2022-10-11T12:33:30.680Z,9072.00